createdAt,value
2022-12-07T00:02:10.324Z,57.78
2022-12-07T00:04:37.095Z,57.91
2022-12-07T00:07:04.237Z,56.50
2022-12-07T00:09:31.025Z,56.34
2022-12-07T00:11:58.224Z,56.50
2022-12-07T00:14:25.784Z,57.05
2022-12-07T00:16:52.590Z,57.51
2022-12-07T00:19:19.567Z,58.18
2022-12-07T00:21:46.928Z,58.94
2022-12-07T00:24:18.632Z,59.45
2022-12-07T00:26:45.412Z,61.34
2022-12-07T00:29:12.459Z,62.14
2022-12-07T00:34:32.270Z,62.17
2022-12-07T00:37:00.955Z,63.87
2022-12-07T00:39:27.700Z,63.74
2022-12-07T00:41:55.392Z,63.61
2022-12-07T00:44:22.100Z,62.65
2022-12-07T00:46:49.096Z,62.57
2022-12-07T00:49:16.839Z,61.58
2022-12-07T00:51:43.695Z,62.24
2022-12-07T00:54:10.550Z,60.80
2022-12-07T00:56:37.278Z,59.14
2022-12-07T00:59:04.619Z,59.17
2022-12-07T01:01:31.862Z,62.20
2022-12-07T01:03:58.784Z,63.74
2022-12-07T01:09:41.572Z,61.05
2022-12-07T01:12:12.195Z,62.93
2022-12-07T01:14:41.893Z,62.83
2022-12-07T01:17:08.637Z,61.10
2022-12-07T01:19:36.109Z,62.77
2022-12-07T01:22:03.158Z,61.69
2022-12-07T01:24:31.804Z,59.78
2022-12-07T01:26:58.852Z,57.45
2022-12-07T01:29:25.587Z,59.76
2022-12-07T01:31:53.267Z,58.05
2022-12-07T01:34:20.868Z,58.83
2022-12-07T01:36:47.858Z,60.05
2022-12-07T01:39:14.642Z,62.22
2022-12-07T01:41:41.516Z,60.68
2022-12-07T01:44:08.388Z,59.28
2022-12-07T01:46:36.071Z,57.90
2022-12-07T01:49:03.408Z,57.28
2022-12-07T01:54:47.674Z,57.52
2022-12-07T01:57:15.435Z,58.52
2022-12-07T01:59:44.790Z,58.61
2022-12-07T02:02:15.156Z,57.29
2022-12-07T02:04:42.329Z,56.63
2022-12-07T02:07:09.176Z,55.83
2022-12-07T02:09:37.543Z,55.66
2022-12-07T02:12:04.585Z,55.19
2022-12-07T02:14:32.977Z,55.43
2022-12-07T02:20:09.265Z,55.98
2022-12-07T02:22:36.210Z,54.69
2022-12-07T02:25:03.056Z,54.66
2022-12-07T02:27:30.208Z,52.71
2022-12-07T02:29:57.072Z,53.27
2022-12-07T02:32:26.437Z,53.39
2022-12-07T02:34:54.037Z,52.37
2022-12-07T02:37:21.583Z,52.44
2022-12-07T02:39:48.399Z,52.29
2022-12-07T02:42:15.156Z,53.19
2022-12-07T02:44:42.106Z,54.60
2022-12-07T02:47:12.252Z,57.25
2022-12-07T02:49:41.002Z,56.54
2022-12-07T02:52:08.366Z,54.25
2022-12-07T02:54:35.356Z,55.13
2022-12-07T02:57:02.140Z,54.10
2022-12-07T02:59:28.982Z,57.26
2022-12-07T03:01:56.069Z,59.57
2022-12-07T03:04:26.460Z,57.08
2022-12-07T03:06:53.109Z,57.49
2022-12-07T03:09:20.085Z,55.65
2022-12-07T03:11:46.683Z,55.17
2022-12-07T03:14:15.290Z,55.69
2022-12-07T03:16:42.516Z,56.38
2022-12-07T03:19:09.317Z,60.49
2022-12-07T03:21:36.233Z,58.37
2022-12-07T03:24:03.076Z,55.87
2022-12-07T03:26:30.262Z,56.47
2022-12-07T03:28:56.818Z,55.92
2022-12-07T03:31:25.432Z,57.50
2022-12-07T03:33:52.415Z,59.65
2022-12-07T03:36:19.508Z,61.20
2022-12-07T03:38:46.529Z,61.39
2022-12-07T03:41:13.418Z,59.64
2022-12-07T03:43:40.872Z,60.30
2022-12-07T03:46:08.405Z,56.73
2022-12-07T03:48:35.297Z,58.97
2022-12-07T03:51:04.005Z,59.49
2022-12-07T03:53:30.788Z,61.20
2022-12-07T03:55:57.883Z,64.47
2022-12-07T03:58:24.931Z,64.20
2022-12-07T04:00:54.248Z,63.22
2022-12-07T04:03:21.359Z,62.36
2022-12-07T04:05:48.536Z,64.52
2022-12-07T04:08:15.850Z,64.92
2022-12-07T04:10:44.172Z,63.50
2022-12-07T04:13:30.840Z,61.65
2022-12-07T04:16:15.536Z,60.55
2022-12-07T04:18:42.449Z,61.07
2022-12-07T04:21:11.578Z,61.70
2022-12-07T04:23:49.240Z,61.65
2022-12-07T04:26:15.901Z,62.27
2022-12-07T04:28:42.715Z,60.96
2022-12-07T04:31:09.478Z,62.38
2022-12-07T04:33:36.232Z,59.65
2022-12-07T04:36:02.992Z,57.77
2022-12-07T04:38:29.684Z,56.14
2022-12-07T04:40:57.384Z,53.96
2022-12-07T04:43:24.087Z,53.51
2022-12-07T04:45:53.651Z,56.98
2022-12-07T04:48:20.329Z,57.66
2022-12-07T04:50:47.579Z,59.23
2022-12-07T04:53:17.854Z,58.92
2022-12-07T04:55:45.580Z,59.22
2022-12-07T04:58:12.521Z,58.81
2022-12-07T05:00:39.761Z,56.14
2022-12-07T05:03:06.628Z,57.54
2022-12-07T05:05:33.961Z,57.95
2022-12-07T05:08:07.899Z,59.04
2022-12-07T05:10:34.621Z,59.54
2022-12-07T05:13:04.126Z,59.56
2022-12-07T05:15:34.455Z,60.85
2022-12-07T05:18:03.675Z,61.31
2022-12-07T05:20:33.785Z,62.39
2022-12-07T05:23:05.985Z,62.08
2022-12-07T05:25:34.724Z,61.32
2022-12-07T05:30:36.615Z,60.46
2022-12-07T05:33:04.105Z,60.50
2022-12-07T05:35:30.825Z,58.59
2022-12-07T05:40:42.409Z,61.10
2022-12-07T05:43:09.270Z,62.48
2022-12-07T05:48:09.907Z,60.49
2022-12-07T05:50:43.431Z,60.77
2022-12-07T05:53:12.122Z,60.91
2022-12-07T05:55:43.577Z,62.49
2022-12-07T05:58:10.605Z,62.80
2022-12-07T06:00:38.272Z,63.99
2022-12-07T06:03:05.188Z,62.92
2022-12-07T06:05:34.370Z,64.03
2022-12-07T06:08:05.708Z,64.31
2022-12-07T06:13:46.802Z,64.50
2022-12-07T06:16:15.891Z,65.45
2022-12-07T06:18:46.689Z,67.64
2022-12-07T06:21:14.155Z,66.75
2022-12-07T06:23:41.094Z,67.10
2022-12-07T06:26:13.048Z,66.83
2022-12-07T06:28:41.535Z,65.24
2022-12-07T06:31:14.791Z,64.25
2022-12-07T06:33:42.332Z,65.46
2022-12-07T06:36:09.220Z,65.22
2022-12-07T06:38:39.230Z,65.25
2022-12-07T06:41:05.925Z,65.14
2022-12-07T06:43:37.033Z,66.25
2022-12-07T06:46:06.232Z,65.41
2022-12-07T06:55:02.745Z,64.26
2022-12-07T06:57:30.985Z,64.38
2022-12-07T07:00:00.506Z,63.74
2022-12-07T07:02:30.660Z,62.97
2022-12-07T07:04:57.908Z,63.84
2022-12-07T07:07:24.835Z,64.28
2022-12-07T07:09:54.451Z,64.09
2022-12-07T07:12:23.429Z,63.01
2022-12-07T07:14:58.326Z,63.32
2022-12-07T07:17:25.623Z,62.23
2022-12-07T07:19:53.040Z,62.34
2022-12-07T07:22:22.399Z,63.60
2022-12-07T07:24:49.826Z,63.45
2022-12-07T07:27:19.829Z,62.18
2022-12-07T07:29:47.407Z,61.30
2022-12-07T07:32:15.365Z,61.53
2022-12-07T07:34:47.443Z,61.13
2022-12-07T07:37:20.271Z,60.52
2022-12-07T07:39:50.179Z,60.27
2022-12-07T07:42:17.027Z,61.83
2022-12-07T07:44:45.059Z,63.33
2022-12-07T07:47:13.935Z,64.27
2022-12-07T07:49:47.554Z,64.20
2022-12-07T07:52:15.161Z,62.81
2022-12-07T07:54:50.239Z,63.13
2022-12-07T07:57:25.660Z,63.82
2022-12-07T07:59:52.954Z,64.35
2022-12-07T08:02:20.013Z,65.14
2022-12-07T08:04:51.582Z,63.90
2022-12-07T08:07:21.653Z,64.57
2022-12-07T08:10:03.299Z,63.42
2022-12-07T08:12:31.476Z,64.08
2022-12-07T08:15:01.447Z,65.13
2022-12-07T08:17:30.714Z,65.28
2022-12-07T08:20:00.478Z,66.18
2022-12-07T08:22:30.468Z,65.88
2022-12-07T08:24:57.550Z,66.63
2022-12-07T08:27:26.351Z,65.77
2022-12-07T08:29:55.623Z,66.34
2022-12-07T08:32:22.542Z,66.47
2022-12-07T08:34:50.140Z,66.17
2022-12-07T08:37:26.178Z,67.16
2022-12-07T08:39:58.014Z,66.97
2022-12-07T08:42:26.706Z,67.20
2022-12-07T08:44:55.582Z,66.07
2022-12-07T08:47:30.617Z,66.17
2022-12-07T08:49:59.472Z,65.52
2022-12-07T08:52:27.688Z,65.01
2022-12-07T08:54:54.261Z,65.51
2022-12-07T08:57:20.971Z,65.98
2022-12-07T08:59:53.769Z,67.08
2022-12-07T09:02:24.265Z,65.87
2022-12-07T09:07:33.966Z,66.46
2022-12-07T09:10:02.814Z,65.52
2022-12-07T09:12:31.368Z,64.44
2022-12-07T09:15:00.076Z,64.44
2022-12-07T09:17:35.333Z,63.32
2022-12-07T09:20:04.856Z,62.71
2022-12-07T09:22:44.511Z,61.57
2022-12-07T09:25:33.754Z,60.58
2022-12-07T09:28:02.217Z,61.91
2022-12-07T09:31:21.119Z,60.40
2022-12-07T09:33:31.704Z,62.44
2022-12-07T09:38:58.853Z,61.70
2022-12-07T09:41:37.571Z,60.79
2022-12-07T09:50:48.607Z,58.42
2022-12-07T09:53:18.589Z,56.29
2022-12-07T09:55:45.621Z,55.32
2022-12-07T09:58:17.212Z,54.32
2022-12-07T10:00:48.172Z,54.34
2022-12-07T10:03:15.273Z,52.12
2022-12-07T10:08:32.012Z,53.69
2022-12-07T10:10:59.440Z,54.81
2022-12-07T10:13:28.437Z,53.04
2022-12-07T10:15:56.115Z,51.15
2022-12-07T10:18:27.484Z,51.73
2022-12-07T10:20:58.528Z,53.37
2022-12-07T10:23:25.575Z,54.49
2022-12-07T10:25:53.597Z,54.64
2022-12-07T10:28:21.461Z,51.95
2022-12-07T10:30:50.979Z,51.07
2022-12-07T10:33:18.288Z,50.35
2022-12-07T10:35:45.693Z,50.86
2022-12-07T10:38:15.643Z,49.61
2022-12-07T10:40:46.741Z,49.56
2022-12-07T10:43:14.770Z,49.09
2022-12-07T10:45:52.047Z,49.07
2022-12-07T10:48:33.050Z,48.10
2022-12-07T10:51:11.443Z,47.16
2022-12-07T10:53:38.899Z,47.86
2022-12-07T10:56:05.965Z,47.58
2022-12-07T10:58:35.196Z,48.03
2022-12-07T11:01:01.995Z,48.68
2022-12-07T11:03:33.607Z,49.91
2022-12-07T11:06:11.828Z,48.41
2022-12-07T11:08:39.002Z,48.42
2022-12-07T11:11:29.329Z,51.37
2022-12-07T11:16:43.900Z,47.43
2022-12-07T11:19:25.124Z,47.22
2022-12-07T11:21:57.960Z,48.06
2022-12-07T11:30:02.550Z,53.26
2022-12-07T11:32:43.020Z,56.87
2022-12-07T11:35:15.809Z,56.87
2022-12-07T11:37:45.003Z,56.03
2022-12-07T11:42:58.284Z,57.03
2022-12-07T11:45:37.431Z,56.73
2022-12-07T11:48:04.481Z,57.33
2022-12-07T11:50:35.910Z,57.25
2022-12-07T11:53:09.633Z,59.36
2022-12-07T11:55:36.362Z,58.23
2022-12-07T11:58:05.443Z,57.47
2022-12-07T12:00:39.780Z,56.85
2022-12-07T12:03:07.382Z,57.15
2022-12-07T12:05:51.087Z,57.71
2022-12-07T12:11:12.002Z,58.87
2022-12-07T12:16:34.627Z,59.23
2022-12-07T12:19:01.841Z,58.27
2022-12-07T12:21:30.141Z,58.86
2022-12-07T12:24:05.067Z,57.98
2022-12-07T12:26:38.687Z,56.10
2022-12-07T12:29:09.950Z,53.75
2022-12-07T12:31:37.390Z,54.82
2022-12-07T12:34:04.559Z,57.51
2022-12-07T12:36:34.238Z,58.40
2022-12-07T12:39:07.982Z,59.41
2022-12-07T12:41:38.441Z,59.20
2022-12-07T12:44:05.819Z,60.28
2022-12-07T12:46:49.408Z,60.26
2022-12-07T12:49:20.932Z,60.16
2022-12-07T12:51:51.835Z,60.53
2022-12-07T12:54:22.610Z,58.55
2022-12-07T12:56:50.469Z,57.75
2022-12-07T12:59:17.670Z,57.84
2022-12-07T13:01:49.057Z,59.95
2022-12-07T13:04:16.347Z,59.06
2022-12-07T13:06:44.239Z,58.45
2022-12-07T13:09:21.207Z,58.76
2022-12-07T13:12:03.602Z,59.66
2022-12-07T13:14:33.775Z,59.97
2022-12-07T13:17:01.811Z,61.15
2022-12-07T13:19:28.588Z,61.23
2022-12-07T13:21:56.177Z,60.35
2022-12-07T13:24:23.035Z,60.35
2022-12-07T13:26:51.673Z,60.37
2022-12-07T13:29:29.364Z,59.62
2022-12-07T13:31:59.676Z,59.34
2022-12-07T13:34:29.367Z,56.81
2022-12-07T13:39:54.310Z,58.77
2022-12-07T13:42:24.522Z,58.74
2022-12-07T13:44:52.855Z,58.54
2022-12-07T13:47:29.060Z,56.12
2022-12-07T13:49:58.332Z,54.93
2022-12-07T13:52:32.169Z,56.18
2022-12-07T13:55:03.637Z,55.68
2022-12-07T13:57:36.079Z,56.95
2022-12-07T14:02:55.299Z,59.17
2022-12-07T14:05:27.360Z,59.68
2022-12-07T14:07:56.374Z,58.35
2022-12-07T14:10:25.996Z,54.83
2022-12-07T14:12:53.792Z,54.68
2022-12-07T14:15:21.158Z,54.92
2022-12-07T14:17:53.540Z,57.68
2022-12-07T14:26:36.110Z,59.74
2022-12-07T14:29:12.491Z,58.93
2022-12-07T14:34:28.860Z,59.56
2022-12-07T14:37:01.017Z,60.03
2022-12-07T14:39:32.366Z,59.72
2022-12-07T14:42:06.705Z,59.19
2022-12-07T14:44:40.178Z,57.84
2022-12-07T14:50:03.171Z,58.22
2022-12-07T14:55:22.590Z,55.98
2022-12-07T15:00:47.553Z,57.95
2022-12-07T15:03:23.251Z,57.03
2022-12-07T15:06:09.628Z,56.41
2022-12-07T15:14:53.208Z,51.41
2022-12-07T15:17:29.907Z,53.00
2022-12-07T15:19:59.273Z,55.31
2022-12-07T15:22:33.620Z,56.65
2022-12-07T15:25:14.891Z,57.78
2022-12-07T15:27:52.956Z,59.46
2022-12-07T15:30:20.938Z,58.39
2022-12-07T15:32:51.800Z,57.30
2022-12-07T15:35:22.645Z,55.35
2022-12-07T15:37:51.707Z,53.92
2022-12-07T15:40:25.627Z,55.85
2022-12-07T15:43:00.345Z,55.80
2022-12-07T15:54:38.102Z,54.52
2022-12-07T15:57:25.175Z,53.00
2022-12-07T15:59:55.234Z,52.29
2022-12-07T16:12:19.787Z,55.74
2022-12-07T16:14:59.140Z,57.53
2022-12-07T16:20:23.427Z,58.60
2022-12-07T16:22:55.777Z,60.17
2022-12-07T16:31:36.006Z,59.40
2022-12-07T16:34:03.040Z,58.12
2022-12-07T17:41:43.680Z,54.94
2022-12-07T17:44:15.464Z,56.66
2022-12-07T17:46:49.914Z,56.44
2022-12-07T17:49:18.762Z,58.64
2022-12-07T17:54:30.857Z,56.29
2022-12-07T17:57:03.230Z,56.26
2022-12-07T17:59:30.509Z,55.16
2022-12-07T18:02:00.443Z,55.37
2022-12-07T18:04:28.327Z,56.64
2022-12-07T18:07:00.551Z,58.52
2022-12-07T18:09:28.497Z,58.26
2022-12-07T18:12:09.393Z,58.96
2022-12-07T18:17:17.815Z,56.97
2022-12-07T18:22:37.215Z,56.42
2022-12-07T18:25:16.135Z,55.36
2022-12-07T18:27:45.105Z,54.43
2022-12-07T18:30:15.342Z,55.10
2022-12-07T18:32:50.804Z,56.00
2022-12-07T18:35:19.266Z,58.51
2022-12-07T18:37:46.220Z,59.51
2022-12-07T18:40:17.652Z,59.07
2022-12-07T18:42:53.405Z,59.57
2022-12-07T18:45:32.100Z,58.41
2022-12-07T18:48:10.792Z,57.77
2022-12-07T18:50:47.082Z,59.04
2022-12-07T18:53:18.568Z,57.79
2022-12-07T18:58:56.433Z,56.92
2022-12-07T19:01:23.810Z,56.28
2022-12-07T19:06:37.317Z,54.73
2022-12-07T19:09:06.102Z,57.63
2022-12-07T19:11:37.097Z,59.57
2022-12-07T19:17:19.681Z,60.21
2022-12-07T19:19:46.808Z,61.49
2022-12-07T19:22:24.060Z,62.08
2022-12-07T19:25:00.993Z,61.40
2022-12-07T19:27:30.385Z,61.69
2022-12-07T19:36:15.634Z,63.18
2022-12-07T19:38:47.734Z,63.30
2022-12-07T20:06:50.129Z,61.00
2022-12-07T20:18:59.845Z,57.65
2022-12-07T20:21:28.253Z,58.92
2022-12-07T20:23:59.387Z,57.04
2022-12-07T20:26:51.228Z,57.19
2022-12-07T20:29:45.492Z,57.11
2022-12-07T20:32:13.428Z,56.40
2022-12-07T20:34:51.197Z,56.96
2022-12-07T21:08:34.071Z,54.45
2022-12-07T21:11:03.002Z,55.79
2022-12-07T21:13:33.287Z,54.64
2022-12-07T21:32:09.267Z,55.65
2022-12-07T21:46:47.751Z,53.45
2022-12-07T21:49:18.463Z,52.31
2022-12-07T21:51:47.320Z,53.33
2022-12-07T21:54:33.047Z,52.84
2022-12-07T21:57:01.119Z,53.02
2022-12-07T21:59:30.121Z,53.67
2022-12-07T22:02:17.615Z,55.02
2022-12-07T22:04:44.506Z,53.19
2022-12-07T22:07:11.445Z,52.95
2022-12-07T22:18:26.979Z,51.81
2022-12-07T22:26:53.545Z,52.26
2022-12-07T22:35:28.791Z,52.64
2022-12-07T22:40:42.140Z,54.50
2022-12-07T22:43:18.974Z,53.79
2022-12-07T22:48:47.758Z,53.18
2022-12-07T22:51:14.447Z,55.86
2022-12-07T22:53:42.916Z,55.45
2022-12-07T22:56:10.147Z,54.91
2022-12-07T22:58:36.896Z,54.62
2022-12-07T23:01:03.534Z,53.92
2022-12-07T23:03:30.496Z,53.72
2022-12-07T23:05:58.173Z,54.46
2022-12-07T23:08:27.431Z,54.40
2022-12-07T23:10:56.117Z,53.12
2022-12-07T23:13:34.340Z,53.88
2022-12-07T23:16:01.323Z,53.75
2022-12-07T23:18:30.212Z,54.07
2022-12-07T23:20:57.664Z,53.82
2022-12-07T23:23:24.453Z,53.51
2022-12-07T23:25:53.739Z,53.51
2022-12-07T23:28:20.598Z,54.54
2022-12-07T23:30:48.281Z,54.58
2022-12-07T23:33:18.328Z,53.80
2022-12-07T23:35:52.530Z,54.62
2022-12-07T23:38:19.986Z,53.98
2022-12-07T23:40:46.838Z,53.58
2022-12-07T23:43:14.682Z,54.10
2022-12-07T23:45:43.378Z,54.54
2022-12-07T23:48:10.627Z,53.97
2022-12-07T23:50:40.325Z,54.48
2022-12-07T23:53:06.984Z,54.68
2022-12-07T23:55:34.086Z,54.79
2022-12-07T23:58:02.637Z,56.55
